SXN39 EGKA-ZZZZ
Flight info
| Callsign | SXN39 |
|---|---|
| Flight time | N/A |
| Altitude | 1700 |
| Route | DCT |
| Aircraft | A139/L-VGD/C |
Departure
| Time | 2026-04-30 20:23 |
|---|---|
| Airport | Brighton City Airport (EGKA) |
Arrival
| Time | N/A |
|---|---|
| Airport | ZZZZ |
| Time | Latitude | Longitude | Altitude | Speed | Heading |
|---|---|---|---|---|---|
| 2026-04-30 20:23 | 50.82425 | -0.28157 | 1111 ft | 99 kts | 206° |
| 2026-04-30 20:23 | 50.82098 | -0.29177 | 1438 ft | 110 kts | 249° |
| 2026-04-30 20:23 | 50.81920 | -0.30343 | 1708 ft | 108 kts | 249° |
| 2026-04-30 20:24 | 50.81737 | -0.31530 | 1726 ft | 116 kts | 249° |
| 2026-04-30 20:24 | 50.81480 | -0.32799 | 1684 ft | 125 kts | 243° |
| 2026-04-30 20:24 | 50.81206 | -0.34149 | 1662 ft | 130 kts | 244° |
| 2026-04-30 20:24 | 50.80922 | -0.35530 | 1644 ft | 134 kts | 242° |
| 2026-04-30 20:25 | 50.80285 | -0.38277 | 1655 ft | 133 kts | 239° |
| 2026-04-30 20:25 | 50.79967 | -0.39642 | 1655 ft | 136 kts | 248° |
| 2026-04-30 20:26 | 50.79821 | -0.42801 | 1530 ft | 144 kts | 262° |
| 2026-04-30 20:26 | 50.79702 | -0.45831 | 1531 ft | 135 kts | 262° |
| 2026-04-30 20:26 | 50.79678 | -0.47310 | 1616 ft | 134 kts | 262° |
| 2026-04-30 20:27 | 50.79636 | -0.50344 | 1693 ft | 142 kts | 262° |
| 2026-04-30 20:27 | 50.79459 | -0.53513 | 1680 ft | 149 kts | 254° |
| 2026-04-30 20:28 | 50.79121 | -0.56816 | 1602 ft | 155 kts | 255° |
| 2026-04-30 20:28 | 50.78735 | -0.60161 | 1476 ft | 151 kts | 248° |
| 2026-04-30 20:29 | 50.78217 | -0.63130 | 1155 ft | 133 kts | 249° |
| 2026-04-30 20:30 | 50.78134 | -0.67220 | 965 ft | 107 kts | 234° |
| 2026-04-30 20:30 | 50.77804 | -0.66367 | 1019 ft | 117 kts | 29° |
| 2026-04-30 20:31 | 50.79744 | -0.66309 | 607 ft | 37 kts | 110° |
| 2026-04-30 20:32 | 50.79469 | -0.65609 | 50 ft | 3 kts | 100° |
| 2026-04-30 20:32 | 50.79460 | -0.65575 | 13 ft | 0 kts | 96° |